Time;durP1;ratioP1;P1;durP2;ratioP2;P2;SDS_P1;SDS_P2;PMS_P1;PMS_P2;Temp;Humidity;BMP_temperature;BMP_pressure;BME280_temperature;BME280_humidity;BME280_pressure;Samples;Min_cycle;Max_cycle;Signal;HPM_P1;HPM_P2
2023/06/07 00:01:06;;;;;;;6.47;2.30;;;;;;;13.80;64.12;99832.69;5027773;28;20049;-35
2023/06/07 00:03:33;;;;;;;9.45;2.70;;;;;;;13.78;64.26;99825.81;5028834;28;20060;-36
2023/06/07 00:06:00;;;;;;;10.77;3.05;;;;;;;13.75;64.46;99825.97;5014411;28;20034;-36
2023/06/07 00:08:33;;;;;;;9.43;2.50;;;;;;;13.74;64.45;99830.34;5027762;28;20045;-36
2023/06/07 00:10:59;;;;;;;6.43;2.60;;;;;;;13.57;64.51;99801.50;5007035;28;20064;-36
2023/06/07 00:13:25;;;;;;;9.77;2.45;;;;;;;13.69;64.51;99826.22;5023981;28;20045;-35
2023/06/07 00:15:51;;;;;;;7.57;2.35;;;;;;;13.52;64.53;99806.06;5019003;28;20041;-35
2023/06/07 00:18:19;;;;;;;12.88;3.08;;;;;;;13.63;64.72;99816.91;5009581;28;20057;-36
2023/06/07 00:20:46;;;;;;;7.95;2.25;;;;;;;13.62;64.81;99819.56;5022890;28;20043;-35
2023/06/07 00:23:16;;;;;;;5.28;2.85;;;;;;;13.58;65.20;99826.72;5028010;28;20044;-34
2023/06/07 00:25:42;;;;;;;6.97;3.13;;;;;;;13.56;65.15;99825.91;5027745;28;20075;-35
2023/06/07 00:28:08;;;;;;;7.38;2.75;;;;;;;13.24;65.75;99777.69;5039490;28;20030;-34
2023/06/07 00:30:34;;;;;;;5.93;2.50;;;;;;;13.48;66.01;99828.03;5024323;28;20429;-34
2023/06/07 00:33:00;;;;;;;7.25;2.67;;;;;;;13.45;65.91;99828.19;5023857;28;20033;-36
2023/06/07 00:35:26;;;;;;;7.65;2.63;;;;;;;13.38;65.93;99822.38;5029858;28;20091;-36
2023/06/07 00:37:52;;;;;;;6.63;3.13;;;;;;;13.40;66.12;99827.50;5027856;28;20547;-35
2023/06/07 00:40:18;;;;;;;7.15;2.50;;;;;;;13.35;66.26;99822.47;5044182;28;20151;-35
2023/06/07 00:42:44;;;;;;;10.98;2.47;;;;;;;13.33;66.32;99820.88;5027496;28;20048;-35
2023/06/07 00:45:10;;;;;;;5.13;2.70;;;;;;;13.34;66.42;99831.25;5043904;28;20049;-35
2023/06/07 00:47:38;;;;;;;7.63;2.90;;;;;;;13.17;66.44;99802.41;5027402;28;20099;-35
2023/06/07 00:50:05;;;;;;;6.70;2.38;;;;;;;13.31;66.72;99831.38;5006577;28;20049;-36
2023/06/07 00:52:33;;;;;;;7.68;3.08;;;;;;;13.33;66.77;99839.16;5018028;28;20034;-35
2023/06/07 00:55:01;;;;;;;7.37;2.70;;;;;;;13.32;66.98;99834.81;5004954;28;20053;-37
2023/06/07 00:57:29;;;;;;;10.35;3.33;;;;;;;13.28;67.38;99838.50;5028698;28;20048;-36
2023/06/07 00:59:55;;;;;;;6.17;3.00;;;;;;;13.30;67.47;99844.47;5024790;28;20509;-35
2023/06/07 01:02:21;;;;;;;7.15;2.90;;;;;;;13.28;67.84;99838.50;5028199;28;20068;-36
2023/06/07 01:04:49;;;;;;;6.28;2.75;;;;;;;13.26;68.15;99835.09;5024637;28;20041;-35
2023/06/07 01:07:17;;;;;;;8.65;3.05;;;;;;;13.11;67.92;99808.72;5025908;28;20042;-35
2023/06/07 01:09:43;;;;;;;6.15;2.35;;;;;;;13.27;67.89;99831.56;5026257;28;20128;-35
2023/06/07 01:12:13;;;;;;;5.20;2.67;;;;;;;13.25;68.30;99830.78;4992752;28;20120;-34
2023/06/07 01:14:39;;;;;;;5.63;2.72;;;;;;;13.26;68.15;99829.88;5025112;28;20041;-36
2023/06/07 01:17:06;;;;;;;10.88;3.25;;;;;;;13.11;68.32;99813.06;5025733;28;20049;-35
2023/06/07 01:19:34;;;;;;;3.80;2.40;;;;;;;13.09;68.17;99809.66;5043490;28;20057;-36
2023/06/07 01:22:06;;;;;;;8.10;2.72;;;;;;;13.24;68.38;99831.72;5028026;28;20033;-35
2023/06/07 01:24:35;;;;;;;9.38;3.20;;;;;;;13.25;68.46;99829.00;5027106;28;20053;-35
2023/06/07 01:27:03;;;;;;;8.15;3.25;;;;;;;13.26;68.27;99832.47;5028437;28;20127;-35
2023/06/07 01:29:30;;;;;;;9.73;3.53;;;;;;;12.94;68.10;99776.38;5027748;28;20615;-35
2023/06/07 01:31:57;;;;;;;9.35;3.35;;;;;;;13.25;68.21;99825.56;5027733;28;20080;-35
2023/06/07 01:34:24;;;;;;;10.55;3.75;;;;;;;12.99;68.26;99780.50;5010358;28;20041;-35
2023/06/07 01:36:50;;;;;;;14.02;4.35;;;;;;;13.23;68.26;99833.47;5026625;28;20053;-35
2023/06/07 01:39:19;;;;;;;9.80;4.60;;;;;;;13.19;68.00;99831.06;5026839;28;20156;-35
2023/06/07 01:41:45;;;;;;;13.43;6.05;;;;;;;13.19;68.08;99831.88;5026723;28;20043;-36
2023/06/07 01:44:13;;;;;;;19.02;5.30;;;;;;;13.20;68.32;99832.72;5027957;28;20037;-35
2023/06/07 01:46:40;;;;;;;13.85;5.55;;;;;;;13.20;68.06;99835.34;5040232;28;20128;-36
2023/06/07 01:49:06;;;;;;;10.20;4.50;;;;;;;12.90;67.93;99780.03;5007178;28;20424;-36
2023/06/07 01:51:32;;;;;;;14.00;4.28;;;;;;;13.20;68.26;99828.38;5015353;28;20040;-34
2023/06/07 01:53:58;;;;;;;13.23;4.65;;;;;;;13.20;68.00;99830.97;5028069;28;20047;-34
2023/06/07 01:56:54;;;;;;;11.00;3.83;;;;;;;13.23;67.91;99835.22;5043284;28;20041;-35
2023/06/07 01:59:39;;;;;;;11.02;4.97;;;;;;;13.25;67.77;99836.00;5026678;28;20195;-35
2023/06/07 02:02:37;;;;;;;9.18;3.47;;;;;;;13.29;68.00;99834.97;5026330;28;20124;-35
2023/06/07 02:05:09;;;;;;;9.25;4.05;;;;;;;13.25;67.90;99838.59;5025690;28;20083;-34
2023/06/07 02:07:40;;;;;;;7.53;3.47;;;;;;;13.22;67.90;99837.00;5025446;28;20037;-35
2023/06/07 02:10:07;;;;;;;9.90;3.60;;;;;;;13.23;68.04;99837.84;5026943;28;20432;-35
2023/06/07 02:12:35;;;;;;;16.08;5.32;;;;;;;13.27;67.92;99840.25;5026612;28;20524;-35
2023/06/07 02:15:01;;;;;;;10.88;3.75;;;;;;;13.24;67.90;99832.53;5026309;28;20099;-35
2023/06/07 02:17:32;;;;;;;7.07;2.80;;;;;;;13.25;68.08;99829.00;5028156;28;20476;-36
2023/06/07 02:19:57;;;;;;;7.18;3.22;;;;;;;13.29;67.98;99830.59;5022898;28;20069;-35
2023/06/07 02:22:23;;;;;;;6.20;3.63;;;;;;;13.33;67.90;99837.38;5013590;28;20136;-36
2023/06/07 02:24:50;;;;;;;7.85;3.70;;;;;;;13.34;68.14;99844.31;5029202;28;20051;-36
2023/06/07 02:27:16;;;;;;;8.80;3.67;;;;;;;13.34;67.90;99841.69;5011513;28;20045;-36
2023/06/07 02:29:42;;;;;;;10.15;3.50;;;;;;;13.36;67.82;99839.84;5010103;28;20591;-41
2023/06/07 02:32:08;;;;;;;9.27;3.70;;;;;;;13.37;67.99;99835.47;5015995;28;20111;-35
2023/06/07 02:34:34;;;;;;;8.60;3.85;;;;;;;13.40;67.60;99830.97;5015185;28;20111;-35
2023/06/07 02:37:00;;;;;;;8.05;3.65;;;;;;;13.44;67.88;99834.31;5015330;28;20048;-35
2023/06/07 02:39:29;;;;;;;8.80;3.60;;;;;;;13.45;67.81;99831.59;5030838;28;20053;-36
2023/06/07 02:41:55;;;;;;;10.52;3.88;;;;;;;13.45;67.82;99828.19;5046341;28;20136;-36
2023/06/07 02:44:20;;;;;;;8.70;3.47;;;;;;;13.48;67.55;99828.88;5029179;28;20145;-35
2023/06/07 02:46:46;;;;;;;6.25;3.25;;;;;;;13.55;67.63;99830.28;5042919;28;20140;-35
2023/06/07 02:49:12;;;;;;;7.22;2.53;;;;;;;13.56;67.47;99824.16;5032746;28;20048;-35
2023/06/07 02:51:39;;;;;;;6.68;3.40;;;;;;;13.61;67.46;99820.50;5050440;28;20068;-35
2023/06/07 02:54:08;;;;;;;7.13;3.30;;;;;;;13.63;67.25;99831.72;5014408;28;20095;-35
2023/06/07 02:56:35;;;;;;;7.25;3.22;;;;;;;13.63;67.45;99821.28;5029461;28;20080;-34
2023/06/07 02:59:01;;;;;;;11.38;2.88;;;;;;;13.72;67.35;99829.53;5029296;28;20073;-34
2023/06/07 03:01:31;;;;;;;7.18;2.83;;;;;;;13.75;67.44;99833.78;5012955;28;20037;-36
2023/06/07 03:03:57;;;;;;;4.65;2.58;;;;;;;13.76;67.34;99840.72;5028829;28;20049;-36
2023/06/07 03:06:23;;;;;;;6.82;2.92;;;;;;;13.75;67.45;99837.25;5030590;28;20048;-35
2023/06/07 03:08:49;;;;;;;7.60;2.80;;;;;;;13.77;67.37;99835.41;5011803;28;20140;-35
2023/06/07 03:11:21;;;;;;;8.98;2.72;;;;;;;13.66;67.26;99814.13;5029683;28;20120;-36
2023/06/07 03:13:49;;;;;;;5.53;2.45;;;;;;;13.82;67.26;99840.44;5012849;28;20050;-35
2023/06/07 03:16:19;;;;;;;5.72;2.63;;;;;;;13.82;67.02;99836.06;5009323;28;20050;-35
2023/06/07 03:18:59;;;;;;;3.65;2.35;;;;;;;13.83;67.15;99831.66;5011107;28;20045;-36
2023/06/07 03:21:26;;;;;;;5.72;2.45;;;;;;;13.87;67.18;99839.31;5012582;28;20037;-35
2023/06/07 03:23:53;;;;;;;4.82;2.85;;;;;;;13.76;67.11;99814.59;5028187;28;20048;-36
2023/06/07 03:26:20;;;;;;;4.43;2.20;;;;;;;13.96;66.97;99838.06;5015711;28;20053;-37
2023/06/07 03:28:48;;;;;;;8.27;3.17;;;;;;;13.99;66.93;99833.53;5025565;28;20537;-36
2023/06/07 03:31:16;;;;;;;;;;;;;;;14.02;66.81;99840.41;5009233;28;20048;-36
2023/06/07 03:33:51;;;;;;;3.92;2.42;;;;;;;14.06;66.73;99838.47;5021941;28;19936;-35
2023/06/07 03:36:24;;;;;;;9.68;2.50;;;;;;;14.12;66.46;99838.19;5028803;28;20045;-36
2023/06/07 03:38:53;;;;;;;5.68;2.33;;;;;;;14.19;66.45;99837.81;5028832;28;20077;-36
2023/06/07 03:41:20;;;;;;;6.43;2.53;;;;;;;14.24;66.46;99835.84;4996010;28;20076;-35
2023/06/07 03:43:46;;;;;;;11.55;2.35;;;;;;;14.15;66.04;99807.53;5029766;28;20081;-35
2023/06/07 03:46:12;;;;;;;9.80;2.47;;;;;;;14.34;66.11;99834.50;5028633;28;20057;-35
2023/06/07 03:48:38;;;;;;;8.43;2.40;;;;;;;14.41;65.90;99835.09;5045183;28;20049;-36
2023/06/07 03:51:06;;;;;;;9.27;2.85;;;;;;;14.49;65.79;99830.34;5028246;28;20099;-36
2023/06/07 03:53:33;;;;;;;6.20;2.55;;;;;;;14.54;65.39;99825.75;5027849;28;20046;-36
2023/06/07 03:56:00;;;;;;;4.55;2.92;;;;;;;14.46;65.20;99801.72;5028358;28;20107;-40
2023/06/07 03:58:30;;;;;;;4.55;2.35;;;;;;;14.68;64.74;99832.91;5027581;28;20037;-36
2023/06/07 04:01:02;;;;;;;4.55;2.30;;;;;;;14.75;64.72;99829.94;5012689;28;20049;-36
2023/06/07 04:03:30;;;;;;;7.53;2.42;;;;;;;14.72;64.37;99805.66;5029834;28;20038;-36
2023/06/07 04:05:59;;;;;;;7.32;2.33;;;;;;;14.93;64.23;99836.03;5028067;28;20505;-36
2023/06/07 04:08:25;;;;;;;6.72;2.47;;;;;;;14.99;63.75;99832.25;5011193;28;20052;-36
2023/06/07 04:10:52;;;;;;;5.13;2.33;;;;;;;15.07;63.25;99827.50;5027191;28;20053;-35
2023/06/07 04:13:19;;;;;;;5.53;2.35;;;;;;;15.15;63.06;99833.19;5027493;28;20131;-36
2023/06/07 04:15:45;;;;;;;5.10;2.58;;;;;;;15.23;62.72;99839.72;4994121;28;20041;-36
2023/06/07 04:18:11;;;;;;;7.88;2.45;;;;;;;15.34;62.62;99833.06;5027192;28;20531;-36
2023/06/07 04:20:42;;;;;;;5.80;1.95;;;;;;;15.40;62.47;99825.75;5028890;28;20045;-42
2023/06/07 04:23:10;;;;;;;6.38;2.53;;;;;;;15.49;62.22;99830.50;5011796;28;20108;-37
2023/06/07 04:25:38;;;;;;;8.70;2.40;;;;;;;15.57;61.91;99833.63;5026671;28;20037;-35
2023/06/07 04:28:05;;;;;;;7.47;2.97;;;;;;;15.61;61.49;99827.28;5010565;28;20049;-33
2023/06/07 04:30:36;;;;;;;8.65;2.40;;;;;;;15.73;61.28;99833.66;5026644;28;20065;-36
2023/06/07 04:33:08;;;;;;;6.40;2.67;;;;;;;15.80;60.93;99834.19;5026851;28;20049;-36
2023/06/07 04:35:36;;;;;;;7.00;2.47;;;;;;;15.85;60.37;99830.41;5025682;28;20049;-34
2023/06/07 04:38:04;;;;;;;6.05;2.25;;;;;;;15.97;60.34;99821.00;5011578;28;20118;-35
2023/06/07 04:40:30;;;;;;;6.50;2.30;;;;;;;16.05;60.33;99819.69;5025072;28;20521;-35
2023/06/07 04:43:04;;;;;;;9.65;2.65;;;;;;;16.00;59.66;99800.72;5009660;28;20588;-36
2023/06/07 04:45:33;;;;;;;7.25;1.98;;;;;;;16.20;59.17;99825.84;5011770;28;20057;-36
2023/06/07 04:48:00;;;;;;;4.20;2.03;;;;;;;16.27;59.15;99813.25;5009648;28;20061;-35
2023/06/07 04:50:30;;;;;;;6.00;2.13;;;;;;;16.35;58.61;99819.75;5010231;28;20041;-35
2023/06/07 04:53:03;;;;;;;5.35;1.92;;;;;;;16.46;58.32;99816.53;5019954;28;20054;-35
2023/06/07 04:55:34;;;;;;;7.38;1.88;;;;;;;16.53;57.84;99820.50;5025100;28;20067;-34
2023/06/07 04:58:04;;;;;;;6.97;2.35;;;;;;;16.36;57.65;99770.75;5026397;28;20536;-34
2023/06/07 05:00:34;;;;;;;3.47;1.90;;;;;;;16.66;57.46;99811.03;4994348;28;20037;-36
2023/06/07 05:03:06;;;;;;;4.32;1.83;;;;;;;16.52;56.89;99775.03;5027915;28;20044;-37
2023/06/07 05:05:36;;;;;;;5.88;1.73;;;;;;;16.85;57.02;99808.19;5011159;28;20049;-36
2023/06/07 05:08:05;;;;;;;3.97;2.05;;;;;;;16.91;56.42;99811.28;5027058;28;20058;-35
2023/06/07 05:10:32;;;;;;;3.97;1.98;;;;;;;16.97;56.19;99804.00;5007502;28;20056;-36
2023/06/07 05:13:01;;;;;;;3.92;1.83;;;;;;;17.12;56.27;99808.34;5040361;28;20049;-36
2023/06/07 05:15:28;;;;;;;3.92;1.98;;;;;;;17.06;55.74;99778.03;5027062;28;20041;-34
2023/06/07 05:17:55;;;;;;;4.30;1.50;;;;;;;17.21;55.33;99779.75;5025956;28;20524;-35
2023/06/07 05:20:24;;;;;;;5.65;2.15;;;;;;;17.48;54.94;99808.75;5013773;28;20034;-35
2023/06/07 05:22:51;;;;;;;12.75;2.00;;;;;;;17.59;54.88;99808.13;5008756;28;20042;-36
2023/06/07 05:25:17;;;;;;;6.25;1.92;;;;;;;17.65;54.71;99805.16;5004328;28;20513;-35
2023/06/07 05:27:43;;;;;;;7.38;2.10;;;;;;;17.76;54.57;99814.06;5026852;28;20433;-35
2023/06/07 05:30:10;;;;;;;9.48;2.95;;;;;;;17.91;54.97;99807.00;5006878;28;20049;-35
2023/06/07 05:32:38;;;;;;;8.88;2.70;;;;;;;18.07;54.67;99807.75;5009412;28;20102;-35
2023/06/07 05:35:04;;;;;;;10.70;2.30;;;;;;;18.05;53.98;99780.69;4989618;28;20041;-35
2023/06/07 05:37:31;;;;;;;8.43;2.30;;;;;;;18.31;53.78;99802.72;5025422;28;20045;-34
2023/06/07 05:39:58;;;;;;;6.95;2.15;;;;;;;18.29;53.13;99783.53;5002648;28;20049;-35
2023/06/07 05:42:25;;;;;;;6.78;1.77;;;;;;;18.50;52.63;99800.56;5013751;28;20037;-35
2023/06/07 05:44:51;;;;;;;4.13;2.17;;;;;;;18.56;52.19;99796.72;5023819;28;20179;-35
2023/06/07 05:47:20;;;;;;;9.55;2.10;;;;;;;18.74;52.09;99798.16;5026366;28;20523;-36
2023/06/07 05:49:46;;;;;;;;;;;;;;;18.89;51.77;99802.41;5025783;28;20069;-36
2023/06/07 05:52:15;;;;;;;7.25;2.83;;;;;;;18.99;51.64;99800.00;5030469;28;20274;-35
2023/06/07 05:54:48;;;;;;;4.53;2.15;;;;;;;19.11;51.40;99793.06;5032553;28;20041;-34
2023/06/07 05:57:15;;;;;;;4.30;1.85;;;;;;;19.33;51.50;99785.38;5029858;28;20103;-38
2023/06/07 05:59:41;;;;;;;8.07;2.03;;;;;;;19.37;49.60;99795.59;5027716;28;20147;-34
2023/06/07 06:02:07;;;;;;;2.97;1.80;;;;;;;19.50;49.61;99790.38;5023736;28;20145;-45
2023/06/07 06:04:33;;;;;;;3.55;1.77;;;;;;;19.53;49.01;99795.41;5027100;28;20572;-36
2023/06/07 06:07:03;;;;;;;5.15;2.17;;;;;;;19.44;48.43;99767.91;5006884;28;20046;-35
2023/06/07 06:09:29;;;;;;;5.00;2.40;;;;;;;19.74;48.64;99791.28;5028757;28;20092;-35
2023/06/07 06:11:55;;;;;;;6.53;2.08;;;;;;;19.85;48.30;99796.66;5028015;28;20129;-35
2023/06/07 06:14:25;;;;;;;3.85;1.65;;;;;;;19.89;47.27;99790.19;5020224;28;20046;-35
2023/06/07 06:16:51;;;;;;;6.38;2.08;;;;;;;19.97;46.85;99791.47;5028609;28;20080;-35
2023/06/07 06:19:17;;;;;;;6.13;2.00;;;;;;;20.17;46.77;99791.72;5017337;28;20140;-35
2023/06/07 06:21:42;;;;;;;5.30;1.90;;;;;;;20.41;46.43;99793.59;5026731;28;20124;-35
2023/06/07 06:24:08;;;;;;;6.43;1.70;;;;;;;20.52;46.08;99785.69;5028811;28;20048;-35
2023/06/07 06:26:34;;;;;;;4.30;1.80;;;;;;;20.54;45.79;99799.63;5023582;28;20052;-36
2023/06/07 06:29:00;;;;;;;3.28;1.73;;;;;;;20.50;45.74;99769.97;5021930;28;20509;-35
2023/06/07 06:31:26;;;;;;;7.72;1.80;;;;;;;20.57;45.62;99770.34;5026440;28;20041;-34
2023/06/07 06:33:53;;;;;;;7.45;1.98;;;;;;;20.96;45.73;99799.09;5026843;28;20053;-36
2023/06/07 06:36:20;;;;;;;3.67;1.85;;;;;;;21.27;44.93;99784.41;5025783;28;20119;-35
2023/06/07 06:38:46;;;;;;;5.60;1.70;;;;;;;21.71;44.21;99790.72;5023377;28;20428;-35
2023/06/07 06:41:13;;;;;;;4.60;1.77;;;;;;;21.98;42.51;99778.78;5026650;28;20137;-41
2023/06/07 06:43:39;;;;;;;2.35;1.70;;;;;;;22.32;42.02;99776.09;5026308;28;20091;-36
2023/06/07 06:46:05;;;;;;;9.60;1.70;;;;;;;22.94;40.86;99793.94;5008035;28;20505;-37
2023/06/07 06:48:31;;;;;;;4.28;1.90;;;;;;;23.95;39.69;99777.19;5026115;28;20044;-36
2023/06/07 06:50:57;;;;;;;5.82;1.48;;;;;;;24.47;37.84;99749.50;5027580;28;20079;-37
2023/06/07 06:53:23;;;;;;;5.95;2.03;;;;;;;25.01;37.19;99774.69;5028112;28;20041;-37
2023/06/07 06:55:49;;;;;;;4.47;1.65;;;;;;;25.50;36.19;99778.06;5024481;28;20033;-37
2023/06/07 06:58:15;;;;;;;5.45;1.70;;;;;;;25.81;35.54;99770.69;5027475;28;20096;-38
2023/06/07 07:00:41;;;;;;;2.70;1.88;;;;;;;26.13;34.97;99747.91;5029254;28;20406;-38
2023/06/07 07:03:07;;;;;;;5.25;1.92;;;;;;;26.62;33.90;99769.78;5024046;28;20041;-36
2023/06/07 07:05:33;;;;;;;4.90;1.77;;;;;;;27.44;33.22;99757.91;5027310;28;20041;-37
2023/06/07 07:08:02;;;;;;;6.45;1.73;;;;;;;27.89;31.40;99761.16;5011539;28;20505;-37
2023/06/07 07:10:28;;;;;;;2.58;1.88;;;;;;;28.34;31.35;99760.81;5028179;28;20041;-38
2023/06/07 07:12:54;;;;;;;5.53;2.13;;;;;;;29.12;30.04;99757.69;5024702;28;20067;-37
2023/06/07 07:15:20;;;;;;;5.72;2.25;;;;;;;29.91;29.24;99765.72;5039245;28;20141;-38
2023/06/07 07:17:48;;;;;;;3.88;1.52;;;;;;;29.77;28.74;99758.38;5026439;28;20034;-37
2023/06/07 07:20:15;;;;;;;6.23;2.00;;;;;;;30.44;28.20;99751.50;5022611;28;20041;-37
2023/06/07 07:22:43;;;;;;;5.40;2.20;;;;;;;31.44;26.67;99728.00;5026967;28;20318;-38
2023/06/07 07:25:10;;;;;;;6.88;1.98;;;;;;;31.52;26.04;99752.06;5026682;28;20049;-37
2023/06/07 07:27:36;;;;;;;3.90;1.70;;;;;;;30.78;26.67;99726.09;5013905;28;20048;-36
2023/06/07 07:30:04;;;;;;;2.97;1.92;;;;;;;30.44;26.67;99751.50;5006777;28;20535;-36
2023/06/07 07:32:30;;;;;;;4.20;2.20;;;;;;;31.25;25.80;99747.38;5027685;28;20045;-36
2023/06/07 07:34:56;;;;;;;3.13;1.50;;;;;;;30.53;26.47;99738.88;5021450;28;20815;-36
2023/06/07 07:37:23;;;;;;;6.57;1.92;;;;;;;30.09;27.04;99738.66;5028648;28;20129;-37
2023/06/07 07:39:49;;;;;;;3.80;1.95;;;;;;;29.81;27.36;99740.94;5027367;28;20049;-36
2023/06/07 07:42:15;;;;;;;4.22;1.92;;;;;;;29.96;27.31;99749.94;5028470;28;20087;-37
2023/06/07 07:44:41;;;;;;;4.75;1.80;;;;;;;28.89;27.98;99730.78;5027675;28;20524;-37
2023/06/07 07:47:07;;;;;;;3.90;1.67;;;;;;;29.51;27.18;99734.53;5027310;28;20041;-36
2023/06/07 07:49:33;;;;;;;4.13;2.05;;;;;;;30.82;26.06;99711.31;5026529;28;20553;-37
2023/06/07 07:51:59;;;;;;;9.38;2.33;;;;;;;32.27;24.87;99733.00;5027595;28;20063;-37
2023/06/07 07:54:25;;;;;;;6.20;2.15;;;;;;;33.47;23.45;99736.53;5009963;28;20072;-36
2023/06/07 07:56:51;;;;;;;2.67;1.90;;;;;;;33.50;23.37;99709.16;5027373;28;20059;-37
2023/06/07 07:59:18;;;;;;;4.88;1.90;;;;;;;34.24;22.62;99730.88;5026957;28;20091;-37
2023/06/07 08:01:45;;;;;;;2.45;1.60;;;;;;;33.48;22.78;99733.66;5025993;28;20053;-37
2023/06/07 08:04:11;;;;;;;5.97;2.13;;;;;;;32.64;23.10;99722.03;5023722;28;20122;-37
2023/06/07 08:06:38;;;;;;;5.05;1.80;;;;;;;31.29;24.47;99719.94;5027873;28;20045;-37
2023/06/07 08:09:05;;;;;;;7.32;2.20;;;;;;;29.87;25.66;99722.31;5026888;28;20053;-38
2023/06/07 08:11:31;;;;;;;8.98;2.17;;;;;;;29.36;26.26;99721.00;5028772;28;20125;-38
2023/06/07 08:13:57;;;;;;;3.03;1.70;;;;;;;30.30;25.48;99720.91;5028612;28;20418;-38
2023/06/07 08:16:23;;;;;;;3.42;1.52;;;;;;;30.57;25.54;99711.50;5026885;28;20111;-36
2023/06/07 08:18:55;;;;;;;3.67;1.42;;;;;;;29.20;26.42;99702.28;5026413;28;20041;-36
2023/06/07 08:21:22;;;;;;;3.88;2.03;;;;;;;28.45;27.52;99701.66;5027390;28;20045;-38
2023/06/07 08:23:48;;;;;;;4.30;1.75;;;;;;;28.12;28.06;99697.25;5029042;28;20044;-37
2023/06/07 08:26:17;;;;;;;5.32;1.73;;;;;;;27.76;28.44;99705.50;5027338;28;20045;-37
2023/06/07 08:28:42;;;;;;;;;;;;;;;26.82;29.31;99704.59;5011755;28;20053;-38
2023/06/07 08:31:10;;;;;;;6.78;1.80;;;;;;;26.02;30.29;99681.50;5027642;28;19923;-37
2023/06/07 08:33:36;;;;;;;6.07;1.98;;;;;;;27.15;29.50;99694.16;5028641;28;20129;-37
2023/06/07 08:36:03;;;;;;;9.75;2.42;;;;;;;29.29;26.75;99671.78;5027924;28;20055;-37
2023/06/07 08:38:29;;;;;;;5.93;2.20;;;;;;;29.06;26.87;99693.09;5028927;28;20041;-36
2023/06/07 08:40:56;;;;;;;4.78;1.48;;;;;;;27.78;27.87;99690.16;5028289;28;20058;-37
2023/06/07 08:43:23;;;;;;;5.10;1.60;;;;;;;26.53;29.02;99685.38;5027337;28;20037;-36
2023/06/07 08:45:50;;;;;;;;;;;;;;;28.11;27.85;99683.03;5027311;28;20477;-36
2023/06/07 08:48:17;;;;;;;2.63;1.90;;;;;;;30.50;25.11;99683.75;5027295;28;19920;-37
2023/06/07 08:50:46;;;;;;;4.40;1.98;;;;;;;31.97;24.02;99683.81;5027137;28;20422;-37
2023/06/07 08:53:13;;;;;;;4.18;2.10;;;;;;;33.16;22.63;99683.03;5027143;28;20065;-37
2023/06/07 08:55:40;;;;;;;2.35;2.03;;;;;;;33.50;21.99;99674.13;5026806;28;20448;-38
2023/06/07 08:58:07;;;;;;;3.97;1.85;;;;;;;35.00;20.67;99682.75;5028342;28;20041;-37
2023/06/07 09:00:33;;;;;;;6.90;2.50;;;;;;;34.94;20.17;99686.28;5010598;28;20045;-38
2023/06/07 09:02:59;;;;;;;2.50;1.80;;;;;;;34.37;20.48;99675.06;5027138;28;20087;-37
2023/06/07 09:05:25;;;;;;;6.78;1.92;;;;;;;34.15;20.76;99654.66;5042724;28;20048;-37
2023/06/07 09:07:52;;;;;;;2.75;1.60;;;;;;;33.84;20.15;99671.38;5028224;28;20049;-37
2023/06/07 09:10:20;;;;;;;5.40;2.08;;;;;;;33.59;20.64;99681.84;5026790;28;20044;-43
2023/06/07 09:12:46;;;;;;;4.28;2.08;;;;;;;33.43;20.04;99660.63;5026819;28;20140;-37
2023/06/07 09:15:19;;;;;;;2.08;1.35;;;;;;;32.06;21.37;99663.00;5027744;28;20129;-37
2023/06/07 09:17:56;;;;;;;2.78;1.45;;;;;;;30.26;22.73;99665.09;5028356;28;20076;-37
2023/06/07 09:20:24;;;;;;;6.53;2.00;;;;;;;30.66;22.71;99658.63;5028101;28;20045;-36
2023/06/07 09:23:00;;;;;;;2.65;1.40;;;;;;;29.96;23.03;99649.91;5027138;28;20128;-37
2023/06/07 09:25:27;;;;;;;2.83;1.60;;;;;;;28.05;24.85;99635.59;5027833;28;20136;-37
2023/06/07 09:27:54;;;;;;;7.35;2.10;;;;;;;28.27;25.35;99670.69;5030905;28;20045;-38
2023/06/07 09:30:21;;;;;;;3.43;1.93;;;;;;;30.11;23.71;99650.81;5031200;28;20037;-37
2023/06/07 09:32:47;;;;;;;8.93;2.30;;;;;;;31.73;22.72;99662.63;5047438;28;20046;-38
2023/06/07 09:35:14;;;;;;;8.80;1.90;;;;;;;32.14;21.35;99655.66;5031652;28;20048;-37
2023/06/07 09:37:47;;;;;;;3.58;1.70;;;;;;;31.92;21.72;99665.56;5047472;28;20098;-37
2023/06/07 09:40:15;;;;;;;3.15;1.60;;;;;;;32.53;21.17;99632.84;5031715;28;20080;-37
2023/06/07 09:42:41;;;;;;;5.35;1.80;;;;;;;32.86;20.84;99657.34;5030744;28;20041;-38
2023/06/07 09:45:15;;;;;;;3.75;2.05;;;;;;;32.84;20.80;99665.63;5031695;28;20198;-37
2023/06/07 09:47:44;;;;;;;4.93;1.65;;;;;;;33.30;20.26;99640.84;5032102;28;20029;-37
2023/06/07 09:50:14;;;;;;;6.20;2.00;;;;;;;31.22;22.30;99649.16;5046401;28;20136;-37
2023/06/07 09:52:40;;;;;;;3.53;1.63;;;;;;;29.05;23.90;99619.13;5031786;28;20056;-37
2023/06/07 09:55:07;;;;;;;3.42;1.90;;;;;;;27.68;25.89;99641.34;5046686;28;20087;-37
2023/06/07 09:57:35;;;;;;;4.57;1.80;;;;;;;26.69;27.18;99644.66;5030039;28;20053;-37
2023/06/07 10:00:15;;;;;;;2.83;1.80;;;;;;;26.08;28.18;99637.44;5030521;28;20049;-38
2023/06/07 10:02:42;;;;;;;3.83;1.83;;;;;;;25.76;29.06;99637.94;5045765;28;20041;-37
2023/06/07 10:05:12;;;;;;;3.72;2.10;;;;;;;26.03;28.81;99635.22;5030386;28;20095;-38
2023/06/07 10:07:42;;;;;;;6.75;2.35;;;;;;;27.64;26.63;99607.94;5029627;28;20625;-37
2023/06/07 10:10:11;;;;;;;5.93;1.80;;;;;;;27.78;26.57;99615.31;5030883;28;20061;-36
2023/06/07 10:12:42;;;;;;;8.13;1.58;;;;;;;26.90;26.88;99615.81;5030233;28;20092;-37
2023/06/07 10:15:10;;;;;;;3.95;1.70;;;;;;;26.27;27.69;99617.81;5031175;28;20064;-38
2023/06/07 10:17:50;;;;;;;6.22;1.60;;;;;;;26.39;27.50;99625.41;5031368;28;20041;-37
2023/06/07 10:20:27;;;;;;;7.28;1.75;;;;;;;26.30;27.67;99618.34;5046586;28;20570;-37
2023/06/07 10:23:16;;;;;;;2.30;1.60;;;;;;;27.85;26.07;99601.28;5029854;28;20053;-38
2023/06/07 10:25:47;;;;;;;4.13;1.98;;;;;;;27.89;25.79;99606.16;5030705;28;20529;-37
2023/06/07 10:28:17;;;;;;;6.00;2.03;;;;;;;29.87;23.91;99604.38;5031053;28;20390;-37
2023/06/07 10:30:50;;;;;;;3.60;1.85;;;;;;;31.60;21.82;99598.81;5029850;28;20041;-37
2023/06/07 10:33:16;;;;;;;6.60;2.13;;;;;;;31.92;20.92;99603.72;5029335;28;20072;-37
2023/06/07 10:35:43;;;;;;;12.73;2.85;;;;;;;33.48;20.12;99595.31;5020961;28;20641;-38
2023/06/07 10:38:10;;;;;;;6.32;2.20;;;;;;;33.64;19.21;99576.06;5027720;28;20069;-37
2023/06/07 10:40:36;;;;;;;3.70;2.13;;;;;;;34.73;19.03;99599.03;5023008;28;20459;-37
2023/06/07 10:43:03;;;;;;;3.60;2.00;;;;;;;34.31;18.30;99577.88;5029302;28;20041;-36
2023/06/07 10:45:29;;;;;;;4.32;2.50;;;;;;;33.91;18.40;99585.09;5029052;28;20568;-37
2023/06/07 10:47:56;;;;;;;13.38;2.30;;;;;;;33.55;18.78;99593.47;4996263;28;20049;-39
2023/06/07 10:50:28;;;;;;;7.22;2.22;;;;;;;32.81;19.78;99582.53;5030259;28;20091;-37
2023/06/07 10:52:55;;;;;;;4.65;1.92;;;;;;;32.51;20.13;99591.81;5029486;28;20048;-38
2023/06/07 10:55:30;;;;;;;6.17;2.20;;;;;;;32.52;19.45;99564.69;5030907;28;20179;-37
2023/06/07 10:57:56;;;;;;;6.35;2.30;;;;;;;33.31;19.54;99599.38;5030598;28;20049;-37
2023/06/07 11:00:33;;;;;;;6.22;2.00;;;;;;;33.98;18.91;99588.59;5045882;28;20041;-39
2023/06/07 11:03:10;;;;;;;7.63;2.55;;;;;;;33.89;19.17;99571.78;5030526;28;20033;-38
2023/06/07 11:05:55;;;;;;;4.17;2.30;;;;;;;33.96;19.01;99577.19;5029057;28;20034;-37
2023/06/07 11:08:21;;;;;;;8.30;2.20;;;;;;;33.63;19.29;99585.19;5030457;28;20033;-38
2023/06/07 11:10:47;;;;;;;12.23;2.00;;;;;;;34.07;18.88;99567.66;5030291;28;20497;-38
2023/06/07 11:13:13;;;;;;;4.63;2.33;;;;;;;34.71;18.87;99571.41;5028702;28;20044;-37
2023/06/07 11:15:40;;;;;;;3.33;1.75;;;;;;;34.31;18.60;99557.09;5045395;28;20045;-38
2023/06/07 11:18:10;;;;;;;7.47;2.20;;;;;;;34.33;18.98;99548.81;5012191;28;20091;-38
2023/06/07 11:20:36;;;;;;;3.53;2.05;;;;;;;33.39;19.33;99550.69;5013702;28;20429;-37
2023/06/07 11:23:37;;;;;;;3.78;1.70;;;;;;;31.82;20.45;99541.31;5010324;28;20030;-37
2023/06/07 11:26:06;;;;;;;5.07;2.00;;;;;;;30.31;21.96;99542.00;5008731;28;20506;-37
2023/06/07 11:28:33;;;;;;;4.80;1.83;;;;;;;29.31;22.53;99516.28;5025204;28;20061;-36
2023/06/07 11:31:01;;;;;;;6.93;1.70;;;;;;;30.42;21.79;99535.34;5008965;28;20037;-37
2023/06/07 11:33:27;;;;;;;2.50;1.60;;;;;;;28.85;22.84;99520.66;4981657;28;20144;-37
2023/06/07 11:35:54;;;;;;;5.85;1.80;;;;;;;28.04;24.20;99542.19;5029794;28;20501;-37
2023/06/07 11:38:21;;;;;;;5.28;1.58;;;;;;;29.16;23.44;99526.88;5028521;28;20042;-37